Terminal Aerodrome Forecast
Issued by NWS

Current Version | Previous Version | Text Only | Print | Product List | Glossary On
Versions: 1 2 3 4 5 6 7 8 9 10 11 12 13 14
027
FTUS46 KHNX 131505 AAA
TAFBFL
TAF AMD
KBFL 131505Z 1315/1412 VRB04KT 4SM HZ SCT200
      TEMPO 1315/1317 2SM HZ
     FM132000 33007KT 5SM HZ SKC
     FM140300 VRB04KT 4SM HZ SKC=

USA.gov is the U.S. government's official web portal to all federal, state and local government web resources and services.